SJV865 WIBB-WIII
Flight info
| Callsign | SJV865 |
|---|---|
| Flight time | N/A |
| Altitude | 37000 |
| Route | ISROR T5 BUNIK |
| Aircraft | A320/M-SDE3FGHIRWY/LB1 |
Departure
| Time | N/A |
|---|---|
| Airport | Sultan Syarif Kasim II International Airport / Roesmin Nurjadin AFB (WIBB) |
Arrival
| Time | 2026-05-04 14:35 |
|---|---|
| Airport | Soekarno-Hatta International Airport (WIII) |
| Time | Latitude | Longitude | Altitude | Speed | Heading |
|---|---|---|---|---|---|
| 2026-05-04 13:43 | -1.64616 | 103.97471 | 36934 ft | 450 kts | 140° |
| 2026-05-04 13:43 | -1.67047 | 103.99444 | 36933 ft | 450 kts | 140° |
| 2026-05-04 13:44 | -1.71901 | 104.03384 | 36934 ft | 450 kts | 140° |
| 2026-05-04 13:44 | -1.75973 | 104.06684 | 36938 ft | 450 kts | 140° |
| 2026-05-04 13:45 | -1.80833 | 104.10618 | 36938 ft | 449 kts | 140° |
| 2026-05-04 13:45 | -1.86432 | 104.15149 | 36943 ft | 449 kts | 140° |
| 2026-05-04 13:46 | -1.90493 | 104.18442 | 36939 ft | 449 kts | 140° |
| 2026-05-04 13:46 | -1.95342 | 104.22371 | 36940 ft | 448 kts | 140° |
| 2026-05-04 13:47 | -2.00185 | 104.26287 | 36934 ft | 448 kts | 140° |
| 2026-05-04 13:47 | -2.05024 | 104.30205 | 36939 ft | 447 kts | 140° |
| 2026-05-04 13:48 | -2.09828 | 104.34098 | 36933 ft | 447 kts | 140° |
| 2026-05-04 13:48 | -2.14659 | 104.38009 | 36931 ft | 447 kts | 140° |
| 2026-05-04 13:49 | -2.19490 | 104.41929 | 36931 ft | 447 kts | 140° |
| 2026-05-04 13:49 | -2.24324 | 104.45853 | 36929 ft | 447 kts | 140° |
| 2026-05-04 13:50 | -2.29159 | 104.49774 | 36927 ft | 448 kts | 140° |
| 2026-05-04 13:50 | -2.33998 | 104.53695 | 36923 ft | 448 kts | 140° |
| 2026-05-04 13:51 | -2.38844 | 104.57620 | 36923 ft | 448 kts | 140° |
| 2026-05-04 13:51 | -2.43691 | 104.61555 | 36919 ft | 449 kts | 140° |
| 2026-05-04 13:52 | -2.50962 | 104.67462 | 36914 ft | 449 kts | 140° |
| 2026-05-04 13:53 | -2.55824 | 104.71403 | 36918 ft | 450 kts | 140° |
| 2026-05-04 13:53 | -2.60692 | 104.75342 | 36920 ft | 451 kts | 140° |
| 2026-05-04 13:54 | -2.68000 | 104.81273 | 36920 ft | 451 kts | 140° |
| 2026-05-04 13:55 | -2.75318 | 104.87213 | 36922 ft | 452 kts | 140° |
| 2026-05-04 13:55 | -2.82646 | 104.93161 | 36922 ft | 452 kts | 140° |
| 2026-05-04 13:56 | -2.87533 | 104.97131 | 36924 ft | 453 kts | 140° |
| 2026-05-04 13:57 | -2.94866 | 105.03084 | 36920 ft | 452 kts | 140° |
| 2026-05-04 13:58 | -3.04639 | 105.11009 | 36921 ft | 452 kts | 140° |
| 2026-05-04 13:58 | -3.11969 | 105.16954 | 36921 ft | 452 kts | 140° |
| 2026-05-04 13:59 | -3.16810 | 105.20889 | 36924 ft | 452 kts | 140° |
| 2026-05-04 14:00 | -3.24118 | 105.26837 | 36923 ft | 451 kts | 140° |
| 2026-05-04 14:00 | -3.31380 | 105.32824 | 36927 ft | 451 kts | 139° |
| 2026-05-04 14:01 | -3.36180 | 105.36858 | 36929 ft | 451 kts | 139° |
| 2026-05-04 14:02 | -3.43395 | 105.42893 | 36924 ft | 450 kts | 139° |
| 2026-05-04 14:02 | -3.48212 | 105.46907 | 36924 ft | 451 kts | 139° |
| 2026-05-04 14:03 | -3.53023 | 105.50923 | 36929 ft | 451 kts | 139° |
| 2026-05-04 14:03 | -3.57836 | 105.54951 | 36925 ft | 451 kts | 139° |
| 2026-05-04 14:04 | -3.65069 | 105.60994 | 36925 ft | 451 kts | 139° |
| 2026-05-04 14:04 | -3.69888 | 105.65017 | 36923 ft | 451 kts | 139° |
| 2026-05-04 14:05 | -3.77121 | 105.71058 | 36925 ft | 452 kts | 139° |
| 2026-05-04 14:06 | -3.81950 | 105.75091 | 36918 ft | 452 kts | 139° |
| 2026-05-04 14:06 | -3.86778 | 105.79126 | 36919 ft | 452 kts | 139° |
| 2026-05-04 14:07 | -3.91616 | 105.83163 | 36923 ft | 453 kts | 139° |
| 2026-05-04 14:07 | -3.96456 | 105.87215 | 36923 ft | 453 kts | 139° |
| 2026-05-04 14:08 | -4.01266 | 105.91244 | 36923 ft | 454 kts | 139° |
| 2026-05-04 14:08 | -4.06110 | 105.95293 | 36926 ft | 454 kts | 139° |
| 2026-05-04 14:09 | -4.13389 | 106.01378 | 36931 ft | 455 kts | 139° |
| 2026-05-04 14:10 | -4.20681 | 106.07469 | 36928 ft | 455 kts | 139° |
| 2026-05-04 14:10 | -4.25539 | 106.11536 | 36934 ft | 455 kts | 139° |
| 2026-05-04 14:11 | -4.30398 | 106.15598 | 36932 ft | 455 kts | 139° |
| 2026-05-04 14:11 | -4.35256 | 106.19664 | 36597 ft | 455 kts | 139° |
| 2026-05-04 14:11 | -4.37684 | 106.21702 | 36357 ft | 455 kts | 139° |
| 2026-05-04 14:12 | -4.40111 | 106.23739 | 36113 ft | 455 kts | 139° |
| 2026-05-04 14:12 | -4.42542 | 106.25777 | 35870 ft | 456 kts | 139° |
| 2026-05-04 14:12 | -4.47449 | 106.29880 | 34483 ft | 465 kts | 139° |
| 2026-05-04 14:13 | -4.49948 | 106.31967 | 33604 ft | 471 kts | 139° |
| 2026-05-04 14:13 | -4.52484 | 106.34088 | 32625 ft | 477 kts | 139° |
| 2026-05-04 14:13 | -4.55038 | 106.36228 | 31715 ft | 481 kts | 139° |
| 2026-05-04 14:13 | -4.57608 | 106.38380 | 31148 ft | 478 kts | 139° |
| 2026-05-04 14:14 | -4.60146 | 106.40503 | 30555 ft | 475 kts | 138° |
| 2026-05-04 14:14 | -4.65181 | 106.44725 | 29291 ft | 468 kts | 138° |
| 2026-05-04 14:14 | -4.67663 | 106.46809 | 28704 ft | 463 kts | 138° |
| 2026-05-04 14:15 | -4.72553 | 106.50912 | 27538 ft | 453 kts | 138° |
| 2026-05-04 14:15 | -4.77279 | 106.54871 | 26697 ft | 427 kts | 138° |
| 2026-05-04 14:16 | -4.81739 | 106.58604 | 25347 ft | 412 kts | 138° |
| 2026-05-04 14:16 | -4.83900 | 106.60416 | 24859 ft | 409 kts | 138° |
| 2026-05-04 14:17 | -4.88698 | 106.63523 | 24149 ft | 416 kts | 152° |
| 2026-05-04 14:17 | -4.91321 | 106.64749 | 23705 ft | 412 kts | 153° |
| 2026-05-04 14:17 | -4.96413 | 106.67052 | 23030 ft | 399 kts | 153° |
| 2026-05-04 14:18 | -4.98930 | 106.68184 | 22557 ft | 395 kts | 153° |
| 2026-05-04 14:18 | -5.03915 | 106.70323 | 21114 ft | 386 kts | 163° |
| 2026-05-04 14:19 | -5.09132 | 106.71429 | 19642 ft | 382 kts | 166° |
| 2026-05-04 14:19 | -5.11729 | 106.71962 | 19157 ft | 380 kts | 167° |
| 2026-05-04 14:19 | -5.14320 | 106.72491 | 18653 ft | 379 kts | 167° |
| 2026-05-04 14:19 | -5.16902 | 106.73019 | 18143 ft | 378 kts | 167° |
| 2026-05-04 14:20 | -5.19482 | 106.73550 | 17587 ft | 377 kts | 167° |
| 2026-05-04 14:20 | -5.22040 | 106.74076 | 17082 ft | 374 kts | 167° |
| 2026-05-04 14:20 | -5.24580 | 106.74598 | 16573 ft | 372 kts | 167° |
| 2026-05-04 14:21 | -5.29604 | 106.75626 | 15685 ft | 364 kts | 167° |
| 2026-05-04 14:21 | -5.32096 | 106.76139 | 15150 ft | 364 kts | 167° |
| 2026-05-04 14:21 | -5.34547 | 106.76643 | 14826 ft | 356 kts | 167° |
| 2026-05-04 14:21 | -5.36959 | 106.77136 | 14421 ft | 353 kts | 167° |
| 2026-05-04 14:22 | -5.39366 | 106.77631 | 13991 ft | 350 kts | 167° |
| 2026-05-04 14:22 | -5.41739 | 106.78118 | 13559 ft | 348 kts | 167° |
| 2026-05-04 14:22 | -5.44103 | 106.78605 | 13097 ft | 346 kts | 167° |
| 2026-05-04 14:22 | -5.46450 | 106.79087 | 12655 ft | 343 kts | 167° |
| 2026-05-04 14:23 | -5.51097 | 106.80042 | 11788 ft | 338 kts | 167° |
| 2026-05-04 14:23 | -5.53395 | 106.80515 | 11366 ft | 335 kts | 167° |
| 2026-05-04 14:23 | -5.55629 | 106.80976 | 10670 ft | 330 kts | 167° |
| 2026-05-04 14:24 | -5.57865 | 106.81437 | 10124 ft | 322 kts | 167° |
| 2026-05-04 14:24 | -5.59982 | 106.81871 | 9963 ft | 301 kts | 167° |
| 2026-05-04 14:24 | -5.62003 | 106.82285 | 9507 ft | 293 kts | 167° |
| 2026-05-04 14:24 | -5.63981 | 106.82691 | 8968 ft | 289 kts | 166° |
| 2026-05-04 14:25 | -5.65940 | 106.83095 | 8404 ft | 286 kts | 166° |
| 2026-05-04 14:25 | -5.69831 | 106.83897 | 7764 ft | 283 kts | 166° |
| 2026-05-04 14:25 | -5.71756 | 106.84294 | 7463 ft | 282 kts | 166° |
| 2026-05-04 14:26 | -5.73674 | 106.84686 | 7160 ft | 280 kts | 166° |
| 2026-05-04 14:26 | -5.74929 | 106.84943 | 6961 ft | 279 kts | 166° |
| 2026-05-04 14:26 | -5.75990 | 106.85161 | 6793 ft | 279 kts | 166° |
| 2026-05-04 14:26 | -5.77889 | 106.85553 | 6484 ft | 278 kts | 166° |
| 2026-05-04 14:27 | -5.79775 | 106.85943 | 6190 ft | 277 kts | 166° |
| 2026-05-04 14:27 | -5.81655 | 106.86330 | 5878 ft | 275 kts | 166° |
| 2026-05-04 14:27 | -5.83507 | 106.86708 | 5643 ft | 263 kts | 166° |
| 2026-05-04 14:27 | -5.85243 | 106.87061 | 5513 ft | 246 kts | 166° |
| 2026-05-04 14:28 | -5.86885 | 106.87396 | 5173 ft | 238 kts | 166° |
| 2026-05-04 14:28 | -5.88502 | 106.87730 | 4779 ft | 237 kts | 166° |
| 2026-05-04 14:28 | -5.90106 | 106.88063 | 4512 ft | 235 kts | 166° |
| 2026-05-04 14:28 | -5.91699 | 106.88393 | 4088 ft | 233 kts | 166° |
| 2026-05-04 14:29 | -5.94869 | 106.89031 | 3330 ft | 233 kts | 171° |
| 2026-05-04 14:29 | -5.97771 | 106.87862 | 2998 ft | 228 kts | 219° |
| 2026-05-04 14:30 | -5.98953 | 106.86836 | 3002 ft | 222 kts | 219° |
| 2026-05-04 14:30 | -6.00084 | 106.85851 | 3025 ft | 207 kts | 219° |
| 2026-05-04 14:30 | -6.02220 | 106.83995 | 3005 ft | 201 kts | 219° |
| 2026-05-04 14:31 | -6.03274 | 106.83083 | 3002 ft | 200 kts | 218° |
| 2026-05-04 14:31 | -6.04860 | 106.80827 | 2802 ft | 202 kts | 247° |
| 2026-05-04 14:32 | -6.05721 | 106.78662 | 2394 ft | 199 kts | 247° |
| 2026-05-04 14:32 | -6.06384 | 106.76999 | 2069 ft | 185 kts | 247° |
| 2026-05-04 14:32 | -6.06697 | 106.76214 | 1910 ft | 180 kts | 247° |
| 2026-05-04 14:32 | -6.07147 | 106.75088 | 1689 ft | 165 kts | 247° |
| 2026-05-04 14:33 | -6.07560 | 106.74052 | 1477 ft | 156 kts | 247° |
| 2026-05-04 14:33 | -6.07961 | 106.73049 | 1274 ft | 154 kts | 247° |
| 2026-05-04 14:33 | -6.08356 | 106.72059 | 1083 ft | 152 kts | 247° |
| 2026-05-04 14:33 | -6.08746 | 106.71084 | 902 ft | 149 kts | 246° |
| 2026-05-04 14:34 | -6.09130 | 106.70122 | 715 ft | 147 kts | 245° |
| 2026-05-04 14:34 | -6.09503 | 106.69173 | 506 ft | 146 kts | 246° |
| 2026-05-04 14:34 | -6.09868 | 106.68221 | 309 ft | 146 kts | 245° |
| 2026-05-04 14:34 | -6.10249 | 106.67285 | 141 ft | 144 kts | 246° |
| 2026-05-04 14:35 | -6.10624 | 106.66370 | 36 ft | 131 kts | 245° |
| 2026-05-04 14:35 | -6.10897 | 106.65667 | 37 ft | 84 kts | 248° |
| 2026-05-04 14:35 | -6.11062 | 106.65254 | 35 ft | 55 kts | 248° |
| 2026-05-04 14:35 | -6.11183 | 106.64958 | 35 ft | 33 kts | 248° |
| 2026-05-04 14:36 | -6.11319 | 106.64773 | 36 ft | 27 kts | 220° |
| 2026-05-04 14:36 | -6.11423 | 106.64702 | 38 ft | 14 kts | 203° |
| 2026-05-04 14:36 | -6.11511 | 106.64724 | 38 ft | 13 kts | 159° |
| 2026-05-04 14:36 | -6.11601 | 106.64761 | 37 ft | 15 kts | 158° |
| 2026-05-04 14:37 | -6.11703 | 106.64796 | 41 ft | 16 kts | 177° |
| 2026-05-04 14:37 | -6.11795 | 106.64723 | 40 ft | 19 kts | 229° |
| 2026-05-04 14:37 | -6.11874 | 106.64661 | 39 ft | 14 kts | 212° |
| 2026-05-04 14:37 | -6.11906 | 106.64641 | 39 ft | 1 kts | 208° |
| 2026-05-04 14:38 | -6.11912 | 106.64638 | 39 ft | 2 kts | 207° |
| 2026-05-04 14:38 | -6.11934 | 106.64637 | 23 ft | 5 kts | 171° |
| 2026-05-04 14:38 | -6.11949 | 106.64641 | 38 ft | 2 kts | 164° |
| 2026-05-04 14:38 | -6.11965 | 106.64658 | 38 ft | 5 kts | 114° |
| 2026-05-04 14:39 | -6.11962 | 106.64702 | 38 ft | 9 kts | 68° |
| 2026-05-04 14:39 | -6.11935 | 106.64765 | 38 ft | 11 kts | 67° |
| 2026-05-04 14:39 | -6.11903 | 106.64844 | 38 ft | 13 kts | 68° |
| 2026-05-04 14:40 | -6.11917 | 106.65005 | 38 ft | 12 kts | 158° |
| 2026-05-04 14:40 | -6.11994 | 106.65012 | 38 ft | 8 kts | 189° |
| 2026-05-04 14:40 | -6.12023 | 106.65007 | 38 ft | 1 kts | 189° |
| 2026-05-04 14:40 | -6.12036 | 106.65005 | 38 ft | 3 kts | 188° |
| 2026-05-04 14:41 | -6.12060 | 106.65013 | 38 ft | 4 kts | 124° |
| 2026-05-04 14:41 | -6.12071 | 106.65047 | 38 ft | 6 kts | 117° |
| 2026-05-04 14:41 | -6.12089 | 106.65077 | 38 ft | 0 kts | 122° |